Date,TemperatureHighF,TemperatureAvgF,TemperatureLowF,DewpointHighF,DewpointAvgF,DewpointLowF,HumidityHigh,HumidityAvg,HumidityLow,PressureMaxIn,PressureMinIn,WindSpeedMaxMPH,WindSpeedAvgMPH,GustSpeedMaxMPH,PrecipitationSumIn
2013-1-1,24.6,19.3,14.6,21.0,17.0,13.0,92,90,84,30.66,30.54,4,0,7,0.00
2013-1-2,21.4,17.9,16.2,18.0,15.5,14.0,92,90,84,30.64,30.52,4,0,7,0.00
2013-1-3,26.7,16.6,8.6,19.0,12.8,6.0,91,85,72,30.52,30.37,3,0,7,0.00
2013-1-4,35.0,19.0,8.4,25.0,14.1,6.0,91,82,63,30.50,30.37,3,0,4,0.01
2013-1-5,25.2,20.6,11.7,23.0,18.6,9.0,93,91,88,30.40,30.27,2,0,5,0.00
2013-1-6,36.1,26.4,17.0,31.0,22.9,15.0,95,87,69,30.29,30.12,5,0,8,0.05
2013-1-7,51.0,42.2,35.0,39.0,33.8,30.0,83,73,53,30.11,29.97,14,5,17,0.00
2013-1-8,52.9,44.9,36.8,42.0,36.9,32.0,86,74,63,30.12,29.90,21,7,28,0.00
2013-1-9,49.2,41.1,29.8,36.0,30.7,23.0,82,67,50,29.90,29.64,28,7,28,0.00
2013-1-10,37.9,29.9,24.7,29.0,23.6,21.0,87,78,59,30.02,29.86,15,2,21,0.00
2013-1-11,34.9,27.1,19.4,24.0,19.9,15.0,85,75,54,30.27,30.02,10,1,16,0.00
2013-1-12,30.7,20.3,13.7,21.0,15.0,10.0,87,80,65,30.40,30.27,2,0,5,0.00
2013-1-13,33.9,20.3,10.2,22.0,14.5,7.0,87,79,59,30.50,30.39,0,0,6,0.00
2013-1-14,40.4,26.1,14.4,27.0,18.0,10.0,87,73,44,30.50,30.39,7,1,10,0.00
2013-1-15,48.2,31.3,20.7,33.0,24.4,17.0,89,77,52,30.63,30.50,4,0,5,0.00
2013-1-16,52.3,33.9,21.7,32.0,25.2,18.0,87,72,45,30.62,30.48,3,0,4,0.00
2013-1-17,44.2,27.8,19.2,35.0,24.1,17.0,94,86,61,30.53,30.41,3,0,6,0.01
2013-1-18,52.0,33.2,21.9,33.0,24.4,18.0,92,72,44,30.43,30.32,1,0,4,0.00
2013-1-19,54.2,35.5,22.8,32.0,24.1,18.0,85,66,37,30.41,30.31,3,0,4,0.00
2013-1-20,44.6,26.7,17.3,31.0,21.9,14.0,92,83,56,30.48,30.38,2,0,5,0.00
2013-1-21,28.1,21.7,16.8,26.0,20.0,15.0,94,92,91,30.41,30.28,2,0,5,0.01
2013-1-22,24.9,21.7,20.1,24.0,20.0,18.0,94,93,92,30.33,30.17,1,0,4,0.00
2013-1-23,32.9,26.6,22.4,31.0,25.0,21.0,95,93,89,30.18,29.96,4,0,6,0.00
2013-1-24,47.4,33.5,21.0,38.0,30.0,19.0,100,87,69,30.24,30.12,4,0,8,0.01
2013-1-25,48.6,43.2,38.0,44.0,40.1,36.0,95,89,81,30.14,29.89,9,2,17,0.11
2013-1-26,45.0,37.8,29.0,38.0,28.5,25.0,95,70,48,30.00,29.86,14,3,17,0.00
2013-1-27,42.3,34.5,28.7,30.0,26.8,24.0,88,74,50,30.08,29.99,7,2,12,0.00
2013-1-28,40.4,36.4,32.1,32.0,29.6,27.0,84,76,65,30.08,29.99,8,1,11,0.00
2013-1-29,47.1,40.4,35.5,37.0,33.0,31.0,86,75,65,30.34,30.07,13,1,16,0.00
2013-1-30,50.5,42.8,36.6,38.0,34.5,31.0,83,73,61,30.37,30.34,9,3,15,0.00
2013-1-31,50.4,39.9,32.3,38.0,34.1,29.0,90,80,61,30.35,30.27,5,0,7,0.00
2013-2-1,52.3,38.2,29.6,40.0,32.8,27.0,93,82,61,30.40,30.29,3,0,8,0.00
2013-2-2,48.6,35.5,26.4,37.0,30.6,24.0,92,83,62,30.42,30.26,3,0,4,0.01
2013-2-3,54.3,38.9,27.8,40.0,33.2,26.0,92,81,57,30.28,30.13,4,0,7,0.00
2013-2-4,52.2,40.3,33.2,37.0,33.1,30.0,89,76,53,30.14,29.90,3,0,5,0.00
2013-2-5,51.0,41.3,32.9,36.0,31.2,27.0,89,69,45,29.99,29.85,22,6,26,0.00
2013-2-6,47.3,40.2,33.5,31.0,29.2,27.0,84,66,46,30.05,29.85,11,2,16,0.00
2013-2-7,47.4,35.9,27.4,31.0,27.8,24.0,88,74,47,30.06,29.85,4,0,10,0.00
2013-2-8,46.9,32.2,21.5,28.0,24.1,19.0,91,74,43,30.18,30.06,15,2,20,0.00
2013-2-9,46.0,33.4,22.5,33.0,26.6,19.0,88,77,59,30.23,30.13,15,3,24,0.00
2013-2-10,51.8,35.8,25.2,34.0,26.9,23.0,91,73,41,30.30,30.20,5,0,9,0.00
2013-2-11,49.6,34.8,22.7,36.0,27.9,19.0,92,77,59,30.32,30.20,18,4,24,0.00
2013-2-12,52.6,39.9,30.6,36.0,31.2,28.0,89,73,45,30.39,30.33,15,2,23,0.00
2013-2-13,50.6,40.7,32.2,37.0,33.3,29.0,92,75,53,30.41,30.33,11,1,15,0.00
2013-2-14,55.6,39.3,26.3,42.0,33.3,24.0,92,80,56,30.51,30.41,11,1,12,0.00
2013-2-15,56.7,39.7,27.4,41.0,34.1,26.0,94,81,55,30.49,30.23,4,0,9,0.01
2013-2-16,52.4,38.5,28.4,38.0,30.6,25.0,93,75,48,30.23,30.10,14,2,24,0.00
2013-2-17,45.6,33.7,25.6,28.0,24.8,20.0,84,71,48,30.20,30.07,9,1,13,0.00
2013-2-18,40.2,32.4,24.0,29.0,25.6,21.0,90,77,62,30.06,29.75,2,0,9,0.00
2013-2-19,46.0,31.6,23.0,31.0,24.5,20.0,95,76,51,29.94,29.69,12,1,15,0.00
2013-2-20,45.2,33.0,21.4,30.0,24.9,18.0,89,74,46,30.04,29.96,9,1,14,0.00
2013-2-21,41.1,35.9,29.5,30.0,27.4,25.0,86,72,55,30.13,30.03,16,4,23,0.00
2013-2-22,47.7,40.5,32.3,34.0,30.0,26.0,82,67,57,30.11,29.80,29,9,33,0.00
2013-2-23,43.8,34.0,25.5,28.0,24.1,20.0,85,69,44,30.36,29.95,16,4,22,0.00
2013-2-24,49.0,34.4,23.4,29.0,23.7,19.0,92,67,41,30.39,30.05,8,2,13,0.00
2013-2-25,45.0,38.3,27.1,34.0,27.9,21.0,85,68,39,30.29,29.97,21,7,27,0.00
2013-2-26,49.5,35.6,23.0,27.0,21.0,14.0,86,60,24,30.36,30.21,7,1,13,0.00
2013-2-27,49.9,39.7,27.4,35.0,27.3,19.0,72,62,46,30.30,30.22,13,1,14,0.00
2013-2-28,58.2,49.4,42.2,43.0,38.8,32.0,79,67,55,30.37,30.18,14,6,19,0.00
2013-3-1,63.7,50.6,37.5,40.0,37.3,32.0,85,63,38,30.38,30.23,9,2,14,0.00
2013-3-2,52.4,44.7,36.6,40.0,36.2,32.0,87,73,55,30.23,30.05,18,2,20,0.00
2013-3-3,47.4,36.9,25.2,31.0,22.5,16.0,77,58,30,30.21,30.07,19,6,24,0.00
2013-3-4,52.7,33.3,17.0,24.0,19.6,13.0,86,61,32,30.24,29.98,5,1,11,0.00
2013-3-5,44.7,34.2,25.9,33.0,25.7,19.0,92,72,50,29.98,29.69,7,1,11,0.02
2013-3-6,40.2,35.4,31.9,38.0,31.3,27.0,96,86,67,29.93,29.52,16,4,22,0.10
2013-3-7,53.8,38.2,27.0,32.0,27.9,22.0,82,68,42,30.04,29.93,10,1,16,0.00
2013-3-8,53.6,37.4,24.5,34.0,26.9,21.0,91,69,40,30.17,29.98,9,1,16,0.00
2013-3-9,57.7,40.2,23.9,29.0,24.3,20.0,85,58,27,30.44,30.18,11,2,15,0.00
2013-3-10,61.3,42.8,25.8,41.0,30.4,20.0,83,64,31,30.45,30.30,12,2,15,0.00
2013-3-11,56.8,44.9,37.6,44.0,38.9,34.0,91,80,61,30.34,30.18,0,0,7,0.00
2013-3-12,63.7,48.5,32.5,43.0,37.2,30.0,94,69,36,30.20,30.05,14,2,19,0.00
2013-3-13,72.4,51.9,41.8,42.0,38.2,35.0,82,63,32,30.15,30.04,9,1,11,0.00
2013-3-14,68.4,52.4,37.6,42.0,34.6,24.0,85,56,22,30.11,29.97,20,4,28,0.00
2013-3-15,60.1,48.5,37.1,43.0,38.0,33.0,89,69,45,30.14,30.07,5,0,11,0.00
2013-3-16,53.1,43.0,34.4,35.0,32.4,30.0,90,68,44,30.08,29.84,25,5,30,0.02
2013-3-17,44.8,36.1,26.8,30.0,24.0,20.0,86,63,43,30.18,29.98,21,3,30,0.00
2013-3-18,51.5,37.0,23.7,29.0,25.2,20.0,86,65,39,30.22,30.13,14,2,18,0.00
2013-3-19,47.9,37.7,27.6,36.0,28.3,22.0,91,70,44,30.16,29.76,4,0,10,0.11
2013-3-20,53.3,42.3,33.7,44.0,35.1,24.0,94,77,51,30.04,29.54,25,7,41,0.05
2013-3-21,44.2,36.1,28.4,29.0,24.5,20.0,76,63,46,30.20,30.04,13,6,27,0.00
2013-3-22,41.7,33.2,24.1,26.0,22.7,17.0,85,67,42,30.32,30.19,22,5,25,0.00
2013-3-23,47.7,33.7,25.8,27.0,23.8,21.0,85,69,38,30.34,30.24,7,1,11,0.00
2013-3-24,51.8,41.5,28.9,29.0,26.6,23.0,80,57,39,30.26,30.11,9,1,11,0.00
2013-3-25,54.5,42.4,31.0,33.0,28.3,24.0,78,59,44,30.12,29.89,9,2,13,0.00
2013-3-26,55.4,45.1,38.6,40.0,36.8,30.0,91,74,56,29.95,29.88,6,0,8,0.06
2013-3-27,61.3,46.2,33.7,44.0,39.1,31.0,92,78,53,29.95,29.84,8,1,13,0.04
2013-3-28,63.3,48.6,40.2,47.0,43.2,39.0,95,83,48,30.06,29.95,11,1,15,0.04
2013-3-29,67.4,52.8,45.0,48.0,44.3,40.0,94,75,45,30.15,30.06,6,1,11,0.01
2013-3-30,73.3,53.1,36.0,48.0,41.8,34.0,94,70,37,30.17,29.98,11,2,16,0.00
2013-3-31,71.2,53.5,36.3,45.0,38.8,33.0,89,61,35,30.00,29.83,14,2,18,0.00
2013-4-1,65.2,53.0,40.7,48.0,43.7,38.0,90,72,48,30.04,29.88,19,6,25,0.00
2013-4-2,66.5,49.6,37.0,45.0,40.1,35.0,93,72,42,30.11,30.02,15,2,23,0.00
2013-4-3,68.2,51.7,34.4,43.0,38.0,32.0,92,64,32,30.11,29.89,7,1,10,0.00
2013-4-4,64.3,52.7,45.9,52.0,44.5,40.0,84,74,56,29.88,29.59,18,4,25,0.12
2013-4-5,57.9,49.8,43.6,42.0,39.9,39.0,83,70,51,29.89,29.80,25,9,26,0.01
2013-4-6,56.8,48.5,43.5,41.0,37.6,34.0,87,67,43,29.89,29.77,18,8,32,0.00
2013-4-7,49.9,44.4,33.8,40.0,33.1,27.0,85,66,48,29.82,29.55,27,10,34,0.03
2013-4-8,51.0,40.4,28.1,33.0,29.9,24.0,85,68,50,30.21,29.82,18,6,27,0.00
2013-4-9,61.8,45.4,27.1,37.0,31.9,24.0,90,63,30,30.31,30.20,8,1,12,0.00
2013-4-10,61.2,50.7,38.5,46.0,37.2,28.0,81,61,39,30.19,29.99,32,8,34,0.00
2013-4-11,53.1,41.9,29.7,34.0,30.7,26.0,86,66,46,30.20,30.10,19,5,27,0.00
2013-4-12,60.8,44.4,29.2,38.0,30.9,25.0,88,63,29,30.11,29.71,17,4,24,0.00
2013-4-13,48.4,42.9,35.8,34.0,25.1,21.0,66,50,38,29.99,29.71,23,9,29,0.00
2013-4-14,46.7,37.0,28.8,35.0,27.5,23.0,86,70,44,30.00,29.85,13,2,16,0.01
2013-4-15,47.8,37.1,30.0,35.0,31.1,27.0,92,79,55,30.10,29.86,16,3,23,0.00
2013-4-16,52.1,39.9,29.9,35.0,28.6,24.0,93,68,36,30.34,30.10,14,3,21,0.01
2013-4-17,57.1,40.7,25.5,31.0,26.4,22.0,88,61,30,30.43,30.34,13,3,24,0.00
2013-4-18,61.6,48.2,34.4,42.0,36.3,28.0,80,65,47,30.37,30.22,11,2,20,0.00
2013-4-19,60.3,51.6,43.8,43.0,39.8,36.0,81,65,44,30.21,30.02,23,7,29,0.00
2013-4-20,60.4,48.0,37.7,39.0,36.0,33.0,83,65,43,30.19,30.11,19,4,23,0.00
2013-4-21,60.2,46.9,32.4,43.0,36.4,28.0,88,69,46,30.19,30.08,17,4,24,0.00
2013-4-22,59.5,46.2,29.9,37.0,28.6,19.0,85,55,28,30.37,30.19,18,4,21,0.00
2013-4-23,67.5,44.7,24.4,25.0,20.6,14.0,79,44,16,30.36,30.10,20,3,22,0.00
2013-4-24,73.0,49.2,27.3,38.0,25.5,19.0,73,43,20,30.28,29.97,6,0,18,0.00
2013-4-25,74.3,55.5,36.5,43.0,34.1,27.0,74,47,29,30.05,29.93,18,4,23,0.00
2013-4-26,80.8,60.1,38.4,45.0,37.4,33.0,82,48,21,30.15,30.05,11,2,18,0.00
2013-4-27,75.1,58.9,42.5,40.0,34.6,30.0,75,44,21,30.14,30.01,25,6,28,0.00
2013-4-28,65.8,55.0,42.3,41.0,35.7,30.0,74,50,31,30.10,29.94,18,5,22,0.00
2013-4-29,56.7,51.6,37.9,42.0,33.7,26.0,69,52,34,30.01,29.86,23,10,29,0.00
2013-4-30,49.9,41.5,34.2,27.0,24.5,21.0,68,52,37,30.36,30.00,24,10,30,0.00
2013-5-1,66.8,46.0,26.1,33.0,27.2,22.0,85,53,20,30.52,30.36,6,1,12,0.00
2013-5-2,77.3,56.3,36.5,38.0,31.3,27.0,72,43,17,30.49,30.17,7,1,9,0.00
2013-5-3,75.6,59.0,40.9,41.0,36.3,31.0,69,46,25,30.20,30.06,12,3,18,0.00
2013-5-4,73.2,58.7,39.2,40.0,35.6,32.0,79,45,25,30.08,29.86,31,9,40,0.00
2013-5-5,78.1,62.0,43.8,41.0,37.0,32.0,67,42,26,29.86,29.67,21,6,26,0.00
2013-5-6,88.0,65.7,43.6,47.0,41.2,35.0,80,45,21,29.76,29.62,14,2,22,0.00
2013-5-7,84.2,65.8,49.9,51.0,46.2,42.0,77,52,27,29.82,29.68,16,4,24,0.00
2013-5-8,89.8,65.9,46.4,52.0,46.7,42.0,85,55,21,29.94,29.82,12,2,17,0.00
2013-5-9,91.0,68.2,49.7,54.0,47.7,42.0,84,53,20,30.01,29.90,14,1,21,0.00
2013-5-10,91.2,70.4,48.6,56.0,49.9,44.0,85,52,23,30.07,29.93,14,2,17,0.00
2013-5-11,93.7,72.4,55.9,62.0,53.8,49.0,80,55,26,30.05,29.85,7,1,10,0.00
2013-5-12,82.5,69.1,56.1,58.0,50.1,44.0,82,54,30,29.93,29.84,16,3,22,0.00
2013-5-13,65.9,57.4,46.3,51.0,43.2,35.0,83,61,38,30.08,29.89,25,6,36,0.00
2013-5-14,73.5,55.1,40.1,42.0,37.7,31.0,85,56,27,30.10,29.95,9,1,16,0.00
2013-5-15,63.6,52.3,41.1,48.0,40.8,35.0,80,66,43,30.01,29.91,9,0,14,0.00
2013-5-16,71.4,52.7,41.9,48.0,43.7,39.0,92,74,36,29.95,29.79,13,1,20,0.18
2013-5-17,62.8,51.5,43.0,47.0,43.3,38.0,93,75,48,30.00,29.87,13,2,17,0.04
2013-5-18,62.0,49.8,38.3,47.0,41.3,35.0,91,74,52,30.18,30.00,10,2,15,0.01
2013-5-19,65.7,51.9,39.9,45.0,39.8,37.0,89,66,38,30.28,30.18,17,4,23,0.00
2013-5-20,82.3,58.7,36.4,50.0,41.8,34.0,90,59,23,30.24,29.78,12,1,14,0.00
2013-5-21,60.0,50.0,39.6,46.0,37.6,29.0,89,64,36,29.84,29.62,19,4,27,0.01
2013-5-22,48.3,42.7,34.6,34.0,30.5,27.0,76,63,53,29.92,29.84,15,6,23,0.01
2013-5-23,64.6,48.4,36.1,40.0,34.4,29.0,80,61,31,29.96,29.89,10,2,21,0.02
2013-5-24,61.7,50.1,42.1,39.0,36.1,32.0,87,61,36,29.98,29.90,13,3,17,0.00
2013-5-25,71.3,52.9,34.6,49.0,39.5,31.0,90,65,32,29.99,29.85,7,1,9,0.06
2013-5-26,66.3,54.4,47.9,51.0,46.1,41.0,95,76,47,29.94,29.86,13,1,19,0.13
2013-5-27,64.0,52.1,43.1,51.0,44.7,39.0,90,77,53,29.91,29.68,11,2,16,0.09
2013-5-28,66.0,55.7,47.5,46.0,41.9,38.0,89,63,37,29.81,29.66,13,3,20,0.00
2013-5-29,62.7,53.7,45.6,46.0,42.9,39.0,94,69,44,29.92,29.59,22,6,28,0.13
2013-5-30,65.8,50.6,35.3,42.0,38.1,33.0,91,65,39,30.15,29.93,14,2,19,0.00
2013-5-31,76.3,55.6,36.0,45.0,39.4,33.0,91,60,28,30.24,30.11,8,1,13,0.00
2013-6-1,82.6,66.0,44.8,50.0,46.1,39.0,82,52,26,30.11,29.89,9,2,17,0.00
2013-6-2,71.3,59.2,47.9,48.0,44.1,40.0,90,61,32,29.94,29.84,15,5,25,0.00
2013-6-3,84.2,61.8,41.5,48.0,41.3,36.0,88,52,21,29.98,29.86,15,2,18,0.00
2013-6-4,85.7,64.0,43.8,47.0,41.9,36.0,74,48,21,30.00,29.89,10,1,13,0.00
2013-6-5,92.2,70.3,50.4,60.0,47.6,41.0,72,47,25,29.96,29.80,7,1,12,0.00
2013-6-6,95.5,72.5,53.2,57.0,49.9,44.0,81,49,23,29.88,29.75,14,2,23,0.00
2013-6-7,86.2,68.7,53.0,55.0,50.0,46.0,78,54,32,29.94,29.82,17,2,26,0.00
2013-6-8,87.1,68.7,47.6,52.0,45.9,37.0,83,49,17,29.97,29.85,21,3,23,0.00
2013-6-9,84.3,66.8,51.9,50.0,42.9,35.0,81,46,19,29.89,29.74,17,3,25,0.00
2013-6-10,83.0,61.2,40.2,45.0,40.2,35.0,84,50,21,29.81,29.64,14,3,20,0.00
2013-6-11,66.0,55.2,45.9,43.0,39.3,36.0,81,58,35,30.02,29.77,18,5,22,0.00
2013-6-12,66.6,53.3,42.4,42.0,39.3,37.0,86,62,38,30.05,29.99,21,4,25,0.00
2013-6-13,62.9,50.8,38.6,47.0,40.4,36.0,91,70,44,30.17,30.04,19,3,27,0.05
2013-6-14,79.2,58.2,40.2,44.0,39.6,36.0,87,56,22,30.19,29.90,8,1,11,0.00
2013-6-15,88.1,65.6,44.8,52.0,43.8,38.0,77,50,18,29.91,29.73,17,2,23,0.00
2013-6-16,87.8,67.7,57.1,56.0,48.8,45.0,69,53,26,29.95,29.79,16,2,21,0.00
2013-6-17,80.6,64.1,48.9,56.0,48.9,44.0,84,61,32,29.95,29.76,9,2,18,0.01
2013-6-18,70.0,57.6,51.0,53.0,47.5,42.0,82,70,44,29.85,29.77,11,1,16,0.04
2013-6-19,62.6,54.1,47.8,47.0,41.8,38.0,87,65,43,29.98,29.81,17,3,25,0.02
2013-6-20,67.8,54.0,40.4,44.0,40.2,36.0,88,62,35,30.03,29.93,13,3,20,0.00
2013-6-21,66.0,55.1,46.0,48.0,43.8,41.0,89,68,44,30.06,30.02,8,1,12,0.03
2013-6-22,84.4,63.2,42.1,51.0,45.0,39.0,88,56,28,30.04,29.76,6,1,10,0.00
2013-6-23,74.1,62.9,55.7,58.0,52.4,46.0,94,70,47,29.76,29.55,6,0,11,0.13
2013-6-24,64.8,57.4,51.7,55.0,51.9,49.0,96,83,59,29.65,29.54,10,0,10,0.18
2013-6-25,70.7,58.5,53.2,58.0,53.8,51.0,95,85,58,29.80,29.62,5,0,9,0.28
2013-6-26,72.1,61.3,53.0,59.0,55.1,51.0,94,81,60,29.98,29.80,4,0,7,0.01
2013-6-27,88.5,68.9,52.5,61.0,56.1,50.0,92,67,37,30.06,29.97,10,1,14,0.00
2013-6-28,99.1,75.5,56.9,64.0,59.1,54.0,91,62,26,30.07,29.85,10,1,13,0.00
2013-6-29,93.2,78.2,66.3,63.0,59.7,52.0,77,55,36,29.91,29.79,10,2,16,0.00
2013-6-30,100.1,79.0,59.7,66.0,57.7,51.0,79,51,27,29.88,29.70,12,2,20,0.00
2013-7-1,106.0,84.4,71.6,67.0,60.9,57.0,71,48,22,29.81,29.71,13,2,19,0.00
2013-7-2,105.5,82.9,66.6,68.0,63.0,56.0,84,55,23,29.87,29.74,15,2,19,0.00
2013-7-3,91.0,76.2,60.4,59.0,51.0,32.0,82,45,18,29.90,29.79,15,3,19,0.00
2013-7-4,81.3,67.6,52.2,49.0,44.2,35.0,77,46,22,29.89,29.78,18,5,25,0.00
2013-7-5,76.9,63.0,48.0,47.0,43.4,37.0,81,52,30,29.86,29.75,16,6,22,0.00
2013-7-6,90.3,65.9,45.3,53.0,44.4,38.0,83,52,17,29.83,29.67,8,1,12,0.00
2013-7-7,93.5,71.2,53.0,55.0,49.1,44.0,79,50,21,29.77,29.63,15,3,21,0.00
2013-7-8,92.8,68.3,49.1,53.0,46.6,43.0,83,51,19,29.91,29.77,5,1,11,0.00
2013-7-9,98.4,75.7,54.3,55.0,48.8,41.0,67,42,20,29.95,29.77,11,2,18,0.00
2013-7-10,94.3,75.6,59.9,55.0,50.9,45.0,71,45,21,29.86,29.66,12,2,21,0.00
2013-7-11,84.8,67.9,53.5,52.0,43.6,33.0,79,46,19,29.82,29.73,15,3,19,0.00
2013-7-12,82.7,62.7,44.7,46.0,39.9,31.0,79,47,18,29.94,29.78,14,3,21,0.00
2013-7-13,85.6,64.4,43.1,44.0,39.2,34.0,84,46,17,30.04,29.91,9,1,14,0.00
2013-7-14,95.2,71.9,49.2,49.0,39.0,28.0,57,33,16,30.00,29.77,13,1,16,0.00
2013-7-15,91.9,71.2,51.5,47.0,42.0,39.0,66,38,18,29.84,29.68,14,3,22,0.00
2013-7-16,88.9,72.7,57.4,52.0,45.2,40.0,57,39,25,29.78,29.67,8,1,16,0.00
2013-7-17,96.3,75.0,56.5,52.0,47.0,39.0,71,42,17,29.96,29.78,13,2,15,0.00
2013-7-18,99.2,75.7,54.9,50.0,45.9,37.0,75,41,14,30.01,29.83,9,1,15,0.00
2013-7-19,100.8,77.8,54.5,47.0,38.4,29.0,50,27,12,29.93,29.76,13,2,18,0.00
2013-7-20,96.3,75.0,54.5,46.0,35.1,29.0,49,26,10,29.84,29.70,13,3,20,0.00
2013-7-21,96.5,74.6,52.0,49.0,38.2,27.0,49,29,13,29.76,29.67,19,4,28,0.00
2013-7-22,95.3,75.2,52.7,47.0,42.9,33.0,65,35,16,29.82,29.73,12,3,17,0.00
2013-7-23,100.8,76.1,53.6,50.0,38.4,32.0,52,28,12,29.87,29.73,16,2,22,0.00
2013-7-24,99.8,77.7,57.8,52.0,41.1,33.0,50,30,10,29.86,29.75,15,2,19,0.00
2013-7-25,99.8,78.2,55.4,46.0,41.2,34.0,60,31,11,29.90,29.81,5,1,17,0.00
2013-7-26,97.3,77.5,56.6,42.0,35.9,29.0,50,24,10,29.93,29.82,21,4,30,0.00
2013-7-27,87.7,70.7,51.0,42.0,38.0,28.0,64,34,13,29.95,29.78,19,4,23,0.00
2013-7-28,82.5,66.6,47.0,44.0,39.9,34.0,62,41,21,29.84,29.74,17,4,25,0.00
2013-7-29,92.8,67.7,46.8,49.0,42.9,38.0,77,46,15,29.85,29.73,14,2,18,0.00
2013-7-30,90.7,71.4,51.0,52.0,45.2,37.0,78,44,15,29.96,29.85,6,1,13,0.00
2013-7-31,87.3,71.7,59.9,53.0,47.2,41.0,70,45,21,29.94,29.79,10,1,14,0.00
2013-8-1,76.6,64.4,55.8,55.0,51.2,47.0,76,63,41,29.94,29.82,13,6,25,0.00
2013-8-2,80.7,62.2,47.2,52.0,47.6,43.0,87,62,28,30.01,29.89,12,1,22,0.00
2013-8-3,90.1,68.2,48.5,52.0,45.8,37.0,84,51,18,30.00,29.84,7,1,12,0.00
2013-8-4,93.0,73.3,55.0,56.0,50.0,46.0,73,48,20,29.92,29.73,5,1,12,0.00
2013-8-5,95.6,75.3,58.8,56.0,52.4,50.0,74,48,21,29.85,29.72,13,2,18,0.00
2013-8-6,97.6,75.7,56.3,52.0,48.6,41.0,75,43,15,29.86,29.72,11,2,20,0.00
2013-8-7,89.7,73.5,56.4,52.0,45.1,39.0,59,38,17,29.85,29.75,15,3,22,0.00
2013-8-8,93.5,74.6,59.4,51.0,49.4,45.0,67,44,22,29.85,29.70,13,2,16,0.00
2013-8-9,93.8,72.6,59.0,58.0,52.3,47.0,81,52,23,29.80,29.63,27,2,38,0.00
2013-8-10,76.7,62.7,51.9,58.0,53.3,48.0,91,73,47,29.93,29.79,15,1,24,0.06
2013-8-11,82.8,66.6,53.4,55.0,51.6,49.0,87,62,32,29.95,29.82,7,1,14,0.00
2013-8-12,89.0,69.3,54.1,54.0,52.0,50.0,87,59,26,29.91,29.79,10,1,15,0.00
2013-8-13,92.9,71.8,52.4,53.0,49.3,44.0,84,50,22,29.96,29.77,9,1,13,0.00
2013-8-14,93.7,73.3,56.7,54.0,50.3,45.0,69,47,23,29.83,29.70,12,1,17,0.00
2013-8-15,91.7,71.5,55.3,57.0,51.4,46.0,74,52,25,29.84,29.72,13,1,20,0.00
2013-8-16,85.9,71.7,60.1,64.0,58.4,55.0,83,65,41,29.89,29.80,12,1,16,0.04
2013-8-17,87.3,70.8,56.9,59.0,55.8,53.0,89,62,36,29.93,29.82,11,2,20,0.00
2013-8-18,93.1,71.2,54.1,58.0,52.5,49.0,86,57,26,29.99,29.85,11,1,15,0.00
2013-8-19,89.7,71.1,52.4,56.0,51.2,46.0,81,52,28,29.96,29.82,11,2,21,0.00
2013-8-20,92.5,70.6,53.3,53.0,44.7,32.0,83,47,12,29.96,29.82,9,1,13,0.00
2013-8-21,88.9,69.7,51.7,48.0,43.1,37.0,64,41,19,29.92,29.78,10,1,12,0.00
2013-8-22,85.3,67.7,58.4,57.0,45.5,40.0,84,48,25,29.83,29.74,8,1,20,0.00
2013-8-23,84.6,69.1,57.3,56.0,53.0,49.0,85,60,31,29.77,29.67,12,2,16,0.00
2013-8-24,84.0,65.0,53.0,58.0,51.8,48.0,87,66,32,29.78,29.64,15,2,21,0.01
2013-8-25,77.4,60.7,52.8,59.0,54.7,51.0,94,82,49,29.84,29.71,25,1,139,0.65
2013-8-26,77.1,62.1,49.2,60.0,51.9,48.0,97,73,41,29.87,29.81,9,2,13,0.01
2013-8-27,87.9,66.8,50.8,57.0,52.9,48.0,90,65,30,29.88,29.64,10,2,16,0.00
2013-8-28,87.1,71.4,57.1,59.0,55.8,52.0,88,61,31,29.76,29.66,10,2,16,0.00
2013-8-29,82.5,69.3,60.9,61.0,56.4,53.0,85,65,38,29.92,29.74,13,2,25,0.07
2013-8-30,85.7,68.9,54.1,57.0,54.0,50.0,88,62,32,30.02,29.88,10,1,15,0.00
2013-8-31,91.2,70.3,54.1,58.0,54.3,50.0,88,61,30,29.94,29.71,10,2,16,0.00
2013-9-1,97.5,73.6,57.8,56.0,51.7,47.0,75,50,18,29.75,29.56,15,3,20,0.00
2013-9-2,87.5,69.0,57.8,56.0,53.1,50.0,79,60,29,29.77,29.64,18,5,27,0.00
2013-9-3,82.5,67.2,53.7,57.0,52.9,49.0,86,63,34,29.86,29.75,14,3,19,0.00
2013-9-4,86.3,66.6,52.4,56.0,52.5,46.0,90,64,28,29.90,29.77,15,3,25,0.00
2013-9-5,77.6,61.6,52.7,55.0,51.5,47.0,90,71,43,29.95,29.72,17,2,115,0.22
2013-9-6,69.3,59.8,52.8,54.0,50.8,46.0,91,73,56,30.04,29.93,11,3,17,0.13
2013-9-7,80.3,61.3,47.5,56.0,51.2,45.0,93,72,40,30.03,29.88,13,2,17,0.00
2013-9-8,81.6,65.1,50.2,56.0,51.8,47.0,91,65,35,29.99,29.90,12,1,17,0.00
2013-9-9,88.9,69.0,48.5,55.0,50.1,44.0,86,55,25,29.94,29.78,12,1,15,0.00
2013-9-10,91.3,70.7,54.4,56.0,51.0,47.0,76,53,25,29.87,29.75,12,2,19,0.00
2013-9-11,92.8,72.8,57.3,57.0,51.4,48.0,70,50,26,29.91,29.79,9,1,16,0.00
2013-9-12,96.4,75.0,58.6,57.0,51.8,47.0,67,47,23,29.86,29.71,9,1,13,0.00
2013-9-13,87.6,71.0,57.9,57.0,50.2,45.0,69,49,35,29.77,29.64,11,2,19,0.00
2013-9-14,94.2,72.7,54.6,57.0,51.6,46.0,76,50,25,29.73,29.57,8,1,12,0.00
2013-9-15,90.9,70.6,59.3,58.0,53.1,48.0,73,56,29,29.71,29.45,19,3,25,0.00
2013-9-16,74.5,61.4,49.2,51.0,48.4,45.0,88,64,40,29.83,29.71,12,3,18,0.00
2013-9-17,65.3,56.2,51.1,48.0,45.2,40.0,85,68,49,29.88,29.70,19,4,28,0.00
2013-9-18,69.2,56.1,45.1,45.0,41.6,39.0,81,61,36,30.00,29.88,11,1,13,0.00
2013-9-19,81.4,58.0,38.1,45.0,41.0,34.0,90,58,25,29.98,29.73,9,1,14,0.00
2013-9-20,78.5,58.5,44.3,51.0,43.0,38.0,84,59,28,29.74,29.48,16,2,21,0.03
2013-9-21,67.4,55.6,46.6,50.0,46.8,43.0,93,75,43,29.68,29.56,9,1,16,0.00
2013-9-22,62.8,54.0,44.2,51.0,43.8,39.0,87,69,48,29.77,29.63,17,4,22,0.02
2013-9-23,63.4,56.2,46.6,45.0,42.4,39.0,75,61,49,29.89,29.77,15,4,19,0.00
2013-9-24,55.1,49.9,42.9,48.0,44.9,39.0,93,83,68,29.86,29.76,6,0,13,0.23
2013-9-25,56.5,47.5,42.4,44.0,40.3,37.0,93,77,54,29.92,29.75,15,3,19,0.03
2013-9-26,59.3,46.9,37.0,44.0,38.7,34.0,90,74,54,30.09,29.92,16,2,18,0.00
2013-9-27,60.7,48.7,36.1,48.0,39.8,33.0,89,73,44,30.10,29.91,15,4,18,0.02
2013-9-28,65.8,57.6,48.4,53.0,49.0,44.0,90,74,54,29.91,29.45,20,7,28,0.20
2013-9-29,53.9,50.3,45.9,50.0,43.7,40.0,89,78,65,29.65,29.39,22,8,29,0.29
2013-9-30,53.8,48.8,43.0,46.0,39.0,35.0,83,69,60,29.94,29.50,21,7,26,0.02
2013-10-1,54.8,46.6,37.7,42.0,36.9,33.0,85,70,51,30.15,29.91,14,4,21,0.02
2013-10-2,55.7,41.5,31.7,39.0,35.0,29.0,92,79,50,30.14,30.00,10,1,17,0.01
2013-10-3,61.1,46.7,37.1,40.0,36.9,33.0,88,71,44,30.37,30.10,9,1,14,0.00
2013-10-4,64.9,46.1,31.4,42.0,35.6,29.0,93,70,37,30.48,30.35,0,0,7,0.00
2013-10-5,71.6,50.4,34.4,45.0,37.0,31.0,87,63,31,30.37,30.15,6,0,8,0.00
2013-10-6,75.1,53.5,35.6,45.0,38.3,32.0,87,60,33,30.16,29.90,6,0,7,0.00
2013-10-7,58.5,51.9,44.3,44.0,37.8,33.0,76,60,47,30.02,29.86,16,3,21,0.00
2013-10-8,52.0,44.1,38.9,41.0,36.6,34.0,83,75,59,30.02,29.88,11,2,16,0.06
2013-10-9,51.5,42.2,33.9,40.0,36.5,31.0,92,81,64,30.05,29.93,11,0,13,0.00
2013-10-10,58.3,46.4,36.2,40.0,37.8,33.0,90,74,49,30.00,29.89,19,2,23,0.00
2013-10-11,55.4,44.2,34.4,42.0,37.1,32.0,91,77,56,30.09,30.00,0,0,7,0.00
2013-10-12,53.0,43.1,35.7,41.0,37.7,33.0,92,82,62,30.12,30.00,5,0,8,0.00
2013-10-13,57.8,47.3,38.1,43.0,39.8,34.0,90,76,51,30.26,30.11,3,0,7,0.00
2013-10-14,61.2,43.5,31.1,41.0,34.1,29.0,92,72,40,30.37,30.26,5,0,15,0.01
2013-10-15,60.4,43.6,30.2,39.0,32.3,26.0,85,67,41,30.38,30.14,6,0,11,0.00
2013-10-16,64.4,46.1,32.7,40.0,34.1,28.0,86,66,38,30.15,30.07,7,0,11,0.00
2013-10-17,66.1,46.5,32.4,42.0,35.6,29.0,87,68,39,30.24,30.15,2,0,8,0.00
2013-10-18,65.0,46.3,31.0,43.0,35.9,28.0,89,69,41,30.26,30.12,1,0,5,0.00
2013-10-19,74.8,50.6,31.1,46.0,37.2,28.0,89,64,33,30.15,30.01,3,0,6,0.00
2013-10-20,73.2,51.3,35.5,43.0,36.6,31.0,82,60,33,30.14,30.05,3,0,6,0.00
2013-10-21,73.3,52.7,36.1,46.0,38.8,31.0,84,62,35,30.14,30.03,5,0,9,0.00
2013-10-22,72.7,53.0,36.9,45.0,39.8,33.0,87,64,35,30.13,29.98,5,0,8,0.00
2013-10-23,69.9,50.8,36.2,47.0,40.3,33.0,89,70,44,30.07,29.96,3,0,7,0.00
2013-10-24,68.9,51.7,38.4,47.0,41.3,36.0,89,70,43,30.07,29.98,2,0,6,0.00
2013-10-25,71.0,50.8,35.5,46.0,40.3,33.0,92,70,39,30.18,30.07,3,0,7,0.00
2013-10-26,67.2,48.8,35.0,46.0,39.0,31.0,88,71,45,30.23,30.06,6,0,9,0.00
2013-10-27,53.9,42.7,36.3,43.0,38.7,34.0,93,86,57,30.07,29.68,17,3,22,0.14
2013-10-28,43.8,39.2,32.1,42.0,29.2,23.0,92,68,52,29.92,29.76,20,8,27,0.01
2013-10-29,51.4,36.5,25.1,30.0,24.7,21.0,85,65,36,30.04,29.92,3,0,7,0.00
2013-10-30,60.2,39.4,25.5,35.0,29.1,22.0,92,69,37,30.13,30.03,3,0,6,0.00
2013-10-31,59.8,48.5,39.0,47.0,40.9,33.0,89,75,61,30.20,30.09,7,1,13,0.00
2013-11-1,61.8,44.4,32.1,46.0,38.7,31.0,96,82,53,30.25,29.90,1,0,7,0.01
2013-11-2,52.8,45.0,34.1,44.0,36.2,30.0,87,72,53,29.98,29.69,24,7,35,0.00
2013-11-3,44.6,38.7,31.0,33.0,30.4,26.0,90,73,52,30.09,29.96,14,2,20,0.00
2013-11-4,48.7,41.0,34.4,38.0,34.3,30.0,89,78,61,30.12,30.05,3,0,7,0.01
2013-11-5,53.6,46.4,38.3,46.0,40.8,34.0,89,81,70,30.16,30.06,9,1,14,0.04
2013-11-6,53.4,46.5,40.9,46.0,43.0,39.0,95,87,76,30.24,30.10,5,0,7,0.01
2013-11-7,53.2,45.4,40.5,49.0,39.3,31.0,96,80,56,30.09,29.83,15,3,22,0.03
2013-11-8,48.9,42.4,34.4,38.0,35.1,32.0,90,75,61,30.13,30.04,8,1,13,0.00
2013-11-9,43.7,36.8,28.2,37.0,33.1,27.0,94,86,73,30.11,30.06,2,0,3,0.01
2013-11-10,40.8,37.3,33.5,38.0,35.0,31.0,93,91,88,30.17,30.10,0,0,0,0.00
2013-11-11,45.7,41.7,34.2,42.0,39.1,32.0,96,91,81,30.27,30.17,2,0,7,0.00
2013-11-12,57.3,45.4,39.5,47.0,41.4,37.0,95,86,67,30.36,30.18,4,0,5,0.02
2013-11-13,58.5,41.0,31.1,45.0,36.7,30.0,96,86,54,30.43,30.24,9,0,10,0.01
2013-11-14,48.2,36.7,29.8,36.0,31.3,26.0,93,82,57,30.24,30.03,8,1,13,0.00
2013-11-15,43.9,35.9,25.1,34.0,29.4,23.0,92,78,63,30.02,29.49,19,3,26,0.00
2013-11-16,47.7,42.3,37.3,34.0,31.9,27.0,80,67,48,29.77,29.44,21,5,32,0.00
2013-11-17,51.5,43.8,35.3,36.0,33.0,29.0,79,67,51,29.96,29.76,17,6,26,0.00
2013-11-18,52.7,44.3,32.2,40.0,35.1,29.0,86,71,54,29.94,29.72,12,2,21,0.00
2013-11-19,53.9,46.8,39.7,46.0,40.4,35.0,93,79,67,29.80,29.65,16,5,22,0.11
2013-11-20,39.5,31.4,19.6,34.0,18.3,5.0,82,60,37,30.42,29.81,14,4,17,0.00
2013-11-21,36.6,22.0,10.9,14.0,9.4,5.0,77,60,36,30.73,30.43,5,0,10,0.00
2013-11-22,35.5,24.0,11.6,17.0,13.1,7.0,82,65,43,30.78,30.67,6,0,8,0.00
2013-11-23,36.8,22.6,12.2,20.0,14.2,8.0,84,71,49,30.66,30.40,3,0,7,0.00
2013-11-24,44.4,26.4,14.5,24.0,17.4,11.0,86,70,42,30.40,30.29,2,0,7,0.00
2013-11-25,45.9,28.1,18.0,26.0,20.0,15.0,87,73,44,30.47,30.38,0,0,4,0.00
2013-11-26,41.7,28.4,20.2,27.0,21.2,16.0,86,76,54,30.39,30.21,0,0,4,0.00
2013-11-27,40.5,28.3,21.6,28.0,22.6,18.0,88,80,60,30.21,30.10,5,0,7,0.00
2013-11-28,45.7,28.5,17.6,29.0,22.4,15.0,91,79,53,30.25,30.16,0,0,4,0.00
2013-11-29,47.8,33.8,19.7,31.0,25.9,17.0,89,74,53,30.32,30.24,2,0,8,0.00
2013-11-30,55.3,43.0,35.2,39.0,34.6,29.0,87,73,48,30.33,30.17,7,0,10,0.00
2013-12-1,62.3,54.4,47.0,45.0,41.8,34.0,82,63,51,30.17,29.78,32,13,37,0.01
2013-12-2,47.3,38.3,28.7,43.0,31.5,22.0,93,77,55,29.93,29.70,24,6,28,0.28
2013-12-3,30.8,25.0,15.5,25.0,18.0,10.0,89,75,55,30.26,29.93,14,3,20,0.00
2013-12-4,27.3,16.0,9.0,14.0,8.8,4.0,85,74,51,30.38,30.26,6,0,8,0.00
2013-12-5,22.8,13.8,3.8,13.0,7.7,0.0,85,77,60,30.36,30.25,8,1,9,0.00
2013-12-6,15.7,12.9,9.9,12.0,9.4,6.0,88,86,81,30.27,30.07,14,3,18,0.00
2013-12-7,11.6,4.0,-8.8,9.0,-0.9,-14.0,87,80,71,30.52,30.14,12,4,18,0.00
2013-12-8,11.5,-3.8,-16.4,4.0,-8.8,-21.0,84,79,69,30.76,30.52,4,1,7,0.00
2013-12-9,23.8,8.6,-5.7,14.0,3.0,-10.0,84,78,65,30.76,30.55,6,1,8,0.00
2013-12-10,31.9,18.3,10.6,22.0,13.4,6.0,87,81,66,30.55,30.45,6,0,6,0.01
2013-12-11,34.0,19.0,10.2,24.0,14.5,7.0,90,83,66,30.48,30.34,4,0,6,0.02
2013-12-12,39.3,25.8,13.6,31.0,20.4,11.0,90,80,70,30.34,30.17,7,0,12,0.00
2013-12-13,50.3,34.3,26.2,36.0,28.9,23.0,95,81,57,30.44,30.23,3,0,8,0.00
2013-12-14,41.9,33.3,26.0,34.0,29.1,24.0,92,85,71,30.46,30.37,7,0,10,0.00
2013-12-15,54.0,39.6,31.2,39.0,33.1,29.0,91,78,53,30.41,30.32,6,0,7,0.00
2013-12-16,50.2,34.4,24.8,39.0,30.8,23.0,93,87,65,30.44,30.31,7,0,9,0.00
2013-12-17,52.4,35.5,26.6,36.0,29.7,24.0,93,81,53,30.31,30.09,2,0,5,0.01
2013-12-18,43.3,36.4,30.6,36.0,30.6,24.0,86,79,72,30.08,29.91,12,2,16,0.00
2013-12-19,36.6,28.3,22.8,24.0,17.9,12.0,80,66,39,30.27,30.01,10,1,17,0.00
2013-12-20,46.5,33.6,22.9,37.0,27.4,18.0,86,78,67,30.17,29.78,13,2,19,0.01
2013-12-21,55.9,44.2,35.9,40.0,35.5,32.0,85,72,52,30.11,29.81,8,0,19,0.00
2013-12-22,52.2,42.5,36.9,41.0,36.6,33.0,88,80,62,30.29,30.09,4,0,6,0.00
2013-12-23,54.7,44.4,35.7,42.0,36.1,30.0,91,74,60,30.44,30.15,20,5,24,0.00
2013-12-24,49.3,34.4,26.2,36.0,28.9,24.0,91,81,59,30.53,30.43,8,0,13,0.00
2013-12-25,42.1,31.9,25.1,33.0,27.2,22.0,91,83,67,30.49,30.39,0,0,5,0.00
2013-12-26,53.1,35.2,24.2,35.0,28.1,22.0,92,78,47,30.41,30.26,1,0,5,0.00
2013-12-27,40.7,32.6,24.7,35.0,27.8,22.0,91,83,72,30.31,30.14,3,0,8,0.01
2013-12-28,48.4,33.6,25.0,34.0,27.7,22.0,92,80,57,30.47,30.30,0,0,5,0.00
2013-12-29,43.3,30.9,23.5,31.0,25.9,20.0,90,82,62,30.46,30.29,4,0,4,0.00
2013-12-30,44.4,37.0,31.0,33.0,29.6,27.0,86,75,61,30.29,30.16,6,0,7,0.00
2013-12-31,51.9,40.6,32.7,37.0,31.5,28.0,89,71,50,30.30,30.17,8,0,9,0.00
2014-1-1,49.5,35.2,26.4,36.0,29.9,24.0,91,82,60,30.38,30.29,2,0,5,0.00
2014-1-2,54.3,38.6,24.9,36.0,30.7,23.0,93,76,43,30.30,29.94,17,2,27,0.01